sensor_id;sensor_type;location;lat;lon;timestamp;P1;durP1;ratioP1;P2;durP2;ratioP2
10446;SDS011;5271;44.422;26.092;2023-01-28T00:01:23;2.70;;;2.70;;
10446;SDS011;5271;44.422;26.092;2023-01-28T00:03:50;2.70;;;2.70;;
10446;SDS011;5271;44.422;26.092;2023-01-28T00:06:17;2.57;;;2.57;;
10446;SDS011;5271;44.422;26.092;2023-01-28T00:08:45;2.60;;;2.60;;
10446;SDS011;5271;44.422;26.092;2023-01-28T00:11:13;2.53;;;2.53;;
10446;SDS011;5271;44.422;26.092;2023-01-28T00:13:40;2.60;;;2.60;;
10446;SDS011;5271;44.422;26.092;2023-01-28T00:16:07;2.53;;;2.53;;
10446;SDS011;5271;44.422;26.092;2023-01-28T00:18:34;2.60;;;2.60;;
10446;SDS011;5271;44.422;26.092;2023-01-28T00:21:03;2.87;;;2.80;;
10446;SDS011;5271;44.422;26.092;2023-01-28T00:23:31;2.73;;;2.73;;
10446;SDS011;5271;44.422;26.092;2023-01-28T00:26:01;2.70;;;2.70;;
10446;SDS011;5271;44.422;26.092;2023-01-28T00:28:30;2.70;;;2.70;;
10446;SDS011;5271;44.422;26.092;2023-01-28T00:30:57;2.90;;;2.80;;
10446;SDS011;5271;44.422;26.092;2023-01-28T00:33:24;2.80;;;2.80;;
10446;SDS011;5271;44.422;26.092;2023-01-28T00:35:56;2.93;;;2.83;;
10446;SDS011;5271;44.422;26.092;2023-01-28T00:38:24;2.70;;;2.70;;
10446;SDS011;5271;44.422;26.092;2023-01-28T00:40:51;2.70;;;2.70;;
10446;SDS011;5271;44.422;26.092;2023-01-28T00:43:19;2.60;;;2.60;;
10446;SDS011;5271;44.422;26.092;2023-01-28T00:45:46;2.90;;;2.80;;
10446;SDS011;5271;44.422;26.092;2023-01-28T00:48:13;2.90;;;2.80;;
10446;SDS011;5271;44.422;26.092;2023-01-28T00:50:40;2.87;;;2.80;;
10446;SDS011;5271;44.422;26.092;2023-01-28T00:53:07;2.80;;;2.80;;
10446;SDS011;5271;44.422;26.092;2023-01-28T00:55:34;2.70;;;2.70;;
10446;SDS011;5271;44.422;26.092;2023-01-28T00:58:01;2.70;;;2.70;;
10446;SDS011;5271;44.422;26.092;2023-01-28T01:00:29;2.70;;;2.70;;
10446;SDS011;5271;44.422;26.092;2023-01-28T01:02:56;2.93;;;2.83;;
10446;SDS011;5271;44.422;26.092;2023-01-28T01:05:23;2.60;;;2.60;;
10446;SDS011;5271;44.422;26.092;2023-01-28T01:07:50;2.70;;;2.70;;
10446;SDS011;5271;44.422;26.092;2023-01-28T01:10:17;2.57;;;2.57;;
10446;SDS011;5271;44.422;26.092;2023-01-28T01:12:45;3.00;;;2.90;;
10446;SDS011;5271;44.422;26.092;2023-01-28T01:15:12;2.83;;;2.80;;
10446;SDS011;5271;44.422;26.092;2023-01-28T01:17:41;3.00;;;2.90;;
10446;SDS011;5271;44.422;26.092;2023-01-28T01:20:12;2.60;;;2.60;;
10446;SDS011;5271;44.422;26.092;2023-01-28T01:22:40;2.77;;;2.77;;
10446;SDS011;5271;44.422;26.092;2023-01-28T01:25:07;2.70;;;2.70;;
10446;SDS011;5271;44.422;26.092;2023-01-28T01:27:35;2.70;;;2.70;;
10446;SDS011;5271;44.422;26.092;2023-01-28T01:30:02;2.60;;;2.60;;
10446;SDS011;5271;44.422;26.092;2023-01-28T01:32:30;2.70;;;2.70;;
10446;SDS011;5271;44.422;26.092;2023-01-28T01:35:00;2.70;;;2.70;;
10446;SDS011;5271;44.422;26.092;2023-01-28T01:37:27;2.60;;;2.60;;
10446;SDS011;5271;44.422;26.092;2023-01-28T01:39:54;2.83;;;2.80;;
10446;SDS011;5271;44.422;26.092;2023-01-28T01:42:22;2.70;;;2.70;;
10446;SDS011;5271;44.422;26.092;2023-01-28T01:44:58;2.60;;;2.60;;
10446;SDS011;5271;44.422;26.092;2023-01-28T01:47:28;2.60;;;2.60;;
10446;SDS011;5271;44.422;26.092;2023-01-28T01:50:06;2.63;;;2.63;;
10446;SDS011;5271;44.422;26.092;2023-01-28T01:52:37;2.70;;;2.70;;
10446;SDS011;5271;44.422;26.092;2023-01-28T01:55:06;2.60;;;2.60;;
10446;SDS011;5271;44.422;26.092;2023-01-28T01:57:37;2.70;;;2.70;;
10446;SDS011;5271;44.422;26.092;2023-01-28T02:00:05;2.70;;;2.70;;
10446;SDS011;5271;44.422;26.092;2023-01-28T02:02:34;2.67;;;2.67;;
10446;SDS011;5271;44.422;26.092;2023-01-28T02:05:06;2.57;;;2.57;;
10446;SDS011;5271;44.422;26.092;2023-01-28T02:07:34;2.67;;;2.67;;
10446;SDS011;5271;44.422;26.092;2023-01-28T02:10:02;2.70;;;2.70;;
10446;SDS011;5271;44.422;26.092;2023-01-28T02:12:30;2.60;;;2.60;;
10446;SDS011;5271;44.422;26.092;2023-01-28T02:15:01;2.80;;;2.80;;
10446;SDS011;5271;44.422;26.092;2023-01-28T02:17:31;2.97;;;2.87;;
10446;SDS011;5271;44.422;26.092;2023-01-28T02:19:59;2.70;;;2.70;;
10446;SDS011;5271;44.422;26.092;2023-01-28T02:25:46;2.70;;;2.70;;
10446;SDS011;5271;44.422;26.092;2023-01-28T02:28:39;2.70;;;2.70;;
10446;SDS011;5271;44.422;26.092;2023-01-28T02:31:12;2.77;;;2.77;;
10446;SDS011;5271;44.422;26.092;2023-01-28T02:33:43;2.60;;;2.60;;
10446;SDS011;5271;44.422;26.092;2023-01-28T02:36:17;2.70;;;2.70;;
10446;SDS011;5271;44.422;26.092;2023-01-28T02:38:52;2.77;;;2.77;;
10446;SDS011;5271;44.422;26.092;2023-01-28T02:41:24;2.70;;;2.70;;
10446;SDS011;5271;44.422;26.092;2023-01-28T02:44:00;2.70;;;2.70;;
10446;SDS011;5271;44.422;26.092;2023-01-28T02:46:34;2.73;;;2.73;;
10446;SDS011;5271;44.422;26.092;2023-01-28T02:49:21;2.80;;;2.80;;
10446;SDS011;5271;44.422;26.092;2023-01-28T02:51:55;2.70;;;2.70;;
10446;SDS011;5271;44.422;26.092;2023-01-28T02:54:44;2.70;;;2.70;;
10446;SDS011;5271;44.422;26.092;2023-01-28T02:57:20;2.90;;;2.80;;
10446;SDS011;5271;44.422;26.092;2023-01-28T02:59:58;3.00;;;2.90;;
10446;SDS011;5271;44.422;26.092;2023-01-28T03:02:33;2.60;;;2.60;;
10446;SDS011;5271;44.422;26.092;2023-01-28T03:05:03;2.70;;;2.70;;
10446;SDS011;5271;44.422;26.092;2023-01-28T03:07:35;2.80;;;2.80;;
10446;SDS011;5271;44.422;26.092;2023-01-28T03:10:04;2.60;;;2.60;;
10446;SDS011;5271;44.422;26.092;2023-01-28T03:12:34;2.83;;;2.77;;
10446;SDS011;5271;44.422;26.092;2023-01-28T03:15:24;2.97;;;2.87;;
10446;SDS011;5271;44.422;26.092;2023-01-28T03:18:12;2.60;;;2.60;;
10446;SDS011;5271;44.422;26.092;2023-01-28T03:21:00;2.70;;;2.70;;
10446;SDS011;5271;44.422;26.092;2023-01-28T03:23:52;2.73;;;2.73;;
10446;SDS011;5271;44.422;26.092;2023-01-28T03:26:41;2.70;;;2.70;;
10446;SDS011;5271;44.422;26.092;2023-01-28T03:29:33;2.83;;;2.80;;
10446;SDS011;5271;44.422;26.092;2023-01-28T03:32:20;2.97;;;2.87;;
10446;SDS011;5271;44.422;26.092;2023-01-28T03:35:05;2.80;;;2.80;;
10446;SDS011;5271;44.422;26.092;2023-01-28T03:37:51;2.70;;;2.70;;
10446;SDS011;5271;44.422;26.092;2023-01-28T03:40:19;2.77;;;2.77;;
10446;SDS011;5271;44.422;26.092;2023-01-28T03:42:46;2.70;;;2.70;;
10446;SDS011;5271;44.422;26.092;2023-01-28T03:45:13;2.97;;;2.87;;
10446;SDS011;5271;44.422;26.092;2023-01-28T03:47:41;2.73;;;2.73;;
10446;SDS011;5271;44.422;26.092;2023-01-28T03:50:09;2.83;;;2.80;;
10446;SDS011;5271;44.422;26.092;2023-01-28T03:52:36;2.97;;;2.87;;
10446;SDS011;5271;44.422;26.092;2023-01-28T03:55:03;3.10;;;3.00;;
10446;SDS011;5271;44.422;26.092;2023-01-28T03:57:37;3.00;;;2.90;;
10446;SDS011;5271;44.422;26.092;2023-01-28T04:00:05;2.90;;;2.80;;
10446;SDS011;5271;44.422;26.092;2023-01-28T04:02:34;2.80;;;2.80;;
10446;SDS011;5271;44.422;26.092;2023-01-28T04:05:06;3.00;;;2.90;;
10446;SDS011;5271;44.422;26.092;2023-01-28T04:07:37;2.73;;;2.73;;
10446;SDS011;5271;44.422;26.092;2023-01-28T04:10:05;2.90;;;2.80;;
10446;SDS011;5271;44.422;26.092;2023-01-28T04:12:34;2.90;;;2.80;;
10446;SDS011;5271;44.422;26.092;2023-01-28T04:15:02;2.93;;;2.83;;
10446;SDS011;5271;44.422;26.092;2023-01-28T04:17:42;2.97;;;2.87;;
10446;SDS011;5271;44.422;26.092;2023-01-28T04:20:12;2.83;;;2.80;;
10446;SDS011;5271;44.422;26.092;2023-01-28T04:22:40;3.00;;;2.90;;
10446;SDS011;5271;44.422;26.092;2023-01-28T04:25:07;2.90;;;2.80;;
10446;SDS011;5271;44.422;26.092;2023-01-28T04:27:34;3.10;;;3.00;;
10446;SDS011;5271;44.422;26.092;2023-01-28T04:30:01;2.70;;;2.70;;
10446;SDS011;5271;44.422;26.092;2023-01-28T04:32:29;3.10;;;3.00;;
10446;SDS011;5271;44.422;26.092;2023-01-28T04:34:55;2.87;;;2.80;;
10446;SDS011;5271;44.422;26.092;2023-01-28T04:37:24;2.63;;;2.63;;
10446;SDS011;5271;44.422;26.092;2023-01-28T04:39:51;2.80;;;2.80;;
10446;SDS011;5271;44.422;26.092;2023-01-28T04:42:17;2.70;;;2.70;;
10446;SDS011;5271;44.422;26.092;2023-01-28T04:44:44;2.77;;;2.77;;
10446;SDS011;5271;44.422;26.092;2023-01-28T04:47:11;3.00;;;2.90;;
10446;SDS011;5271;44.422;26.092;2023-01-28T04:49:38;2.70;;;2.70;;
10446;SDS011;5271;44.422;26.092;2023-01-28T04:52:05;3.00;;;2.90;;
10446;SDS011;5271;44.422;26.092;2023-01-28T04:54:33;3.00;;;2.90;;
10446;SDS011;5271;44.422;26.092;2023-01-28T04:57:00;3.00;;;2.90;;
10446;SDS011;5271;44.422;26.092;2023-01-28T04:59:27;3.00;;;2.90;;
10446;SDS011;5271;44.422;26.092;2023-01-28T05:01:54;3.00;;;2.90;;
10446;SDS011;5271;44.422;26.092;2023-01-28T05:04:21;2.90;;;2.80;;
10446;SDS011;5271;44.422;26.092;2023-01-28T05:06:47;2.90;;;2.80;;
10446;SDS011;5271;44.422;26.092;2023-01-28T05:09:14;2.93;;;2.83;;
10446;SDS011;5271;44.422;26.092;2023-01-28T05:11:43;3.00;;;2.90;;
10446;SDS011;5271;44.422;26.092;2023-01-28T05:14:09;3.10;;;3.00;;
10446;SDS011;5271;44.422;26.092;2023-01-28T05:16:36;3.00;;;2.90;;
10446;SDS011;5271;44.422;26.092;2023-01-28T05:19:03;2.97;;;2.87;;
10446;SDS011;5271;44.422;26.092;2023-01-28T05:21:30;2.77;;;2.77;;
10446;SDS011;5271;44.422;26.092;2023-01-28T05:23:57;2.90;;;2.80;;
10446;SDS011;5271;44.422;26.092;2023-01-28T05:26:24;3.00;;;2.90;;
10446;SDS011;5271;44.422;26.092;2023-01-28T05:28:52;3.00;;;2.90;;
10446;SDS011;5271;44.422;26.092;2023-01-28T05:31:19;3.00;;;2.90;;
10446;SDS011;5271;44.422;26.092;2023-01-28T05:33:45;2.70;;;2.70;;
10446;SDS011;5271;44.422;26.092;2023-01-28T05:36:12;3.13;;;3.03;;
10446;SDS011;5271;44.422;26.092;2023-01-28T05:38:39;3.03;;;2.93;;
10446;SDS011;5271;44.422;26.092;2023-01-28T05:41:06;3.00;;;2.90;;
10446;SDS011;5271;44.422;26.092;2023-01-28T05:43:33;3.10;;;3.00;;
10446;SDS011;5271;44.422;26.092;2023-01-28T05:46:01;2.97;;;2.87;;
10446;SDS011;5271;44.422;26.092;2023-01-28T05:48:28;2.93;;;2.83;;
10446;SDS011;5271;44.422;26.092;2023-01-28T05:50:55;3.10;;;3.00;;
10446;SDS011;5271;44.422;26.092;2023-01-28T05:53:22;3.00;;;2.90;;
10446;SDS011;5271;44.422;26.092;2023-01-28T05:55:49;2.93;;;2.83;;
10446;SDS011;5271;44.422;26.092;2023-01-28T05:58:18;3.00;;;2.90;;
10446;SDS011;5271;44.422;26.092;2023-01-28T06:00:46;2.93;;;2.83;;
10446;SDS011;5271;44.422;26.092;2023-01-28T06:03:14;3.00;;;2.90;;
10446;SDS011;5271;44.422;26.092;2023-01-28T06:05:41;3.00;;;2.90;;
10446;SDS011;5271;44.422;26.092;2023-01-28T06:08:08;2.77;;;2.77;;
10446;SDS011;5271;44.422;26.092;2023-01-28T06:10:34;2.80;;;2.80;;
10446;SDS011;5271;44.422;26.092;2023-01-28T06:13:01;3.10;;;3.00;;
10446;SDS011;5271;44.422;26.092;2023-01-28T06:15:28;2.87;;;2.80;;
10446;SDS011;5271;44.422;26.092;2023-01-28T06:17:55;2.70;;;2.70;;
10446;SDS011;5271;44.422;26.092;2023-01-28T06:20:23;2.77;;;2.77;;
10446;SDS011;5271;44.422;26.092;2023-01-28T06:22:51;3.00;;;2.90;;
10446;SDS011;5271;44.422;26.092;2023-01-28T06:25:18;2.70;;;2.70;;
10446;SDS011;5271;44.422;26.092;2023-01-28T06:27:45;3.00;;;2.90;;
10446;SDS011;5271;44.422;26.092;2023-01-28T06:30:12;3.03;;;2.93;;
10446;SDS011;5271;44.422;26.092;2023-01-28T06:32:39;3.00;;;2.90;;
10446;SDS011;5271;44.422;26.092;2023-01-28T06:35:06;3.00;;;2.90;;
10446;SDS011;5271;44.422;26.092;2023-01-28T06:37:35;3.00;;;2.90;;
10446;SDS011;5271;44.422;26.092;2023-01-28T06:40:02;3.10;;;3.00;;
10446;SDS011;5271;44.422;26.092;2023-01-28T06:42:29;2.90;;;2.80;;
10446;SDS011;5271;44.422;26.092;2023-01-28T06:44:56;2.90;;;2.80;;
10446;SDS011;5271;44.422;26.092;2023-01-28T06:47:23;2.70;;;2.70;;
10446;SDS011;5271;44.422;26.092;2023-01-28T06:49:50;3.00;;;2.90;;
10446;SDS011;5271;44.422;26.092;2023-01-28T06:52:16;3.10;;;3.00;;
10446;SDS011;5271;44.422;26.092;2023-01-28T06:54:45;2.87;;;2.80;;
10446;SDS011;5271;44.422;26.092;2023-01-28T06:57:12;3.00;;;2.90;;
10446;SDS011;5271;44.422;26.092;2023-01-28T06:59:38;3.07;;;2.97;;
10446;SDS011;5271;44.422;26.092;2023-01-28T07:02:05;3.10;;;3.00;;
10446;SDS011;5271;44.422;26.092;2023-01-28T07:04:32;3.10;;;3.00;;
10446;SDS011;5271;44.422;26.092;2023-01-28T07:06:59;3.03;;;2.93;;
10446;SDS011;5271;44.422;26.092;2023-01-28T07:09:26;3.00;;;2.90;;
10446;SDS011;5271;44.422;26.092;2023-01-28T07:11:55;3.10;;;3.00;;
10446;SDS011;5271;44.422;26.092;2023-01-28T07:14:22;3.07;;;2.97;;
10446;SDS011;5271;44.422;26.092;2023-01-28T07:16:49;3.00;;;2.90;;
10446;SDS011;5271;44.422;26.092;2023-01-28T07:19:16;3.10;;;3.00;;
10446;SDS011;5271;44.422;26.092;2023-01-28T07:21:42;3.10;;;3.00;;
10446;SDS011;5271;44.422;26.092;2023-01-28T07:24:09;3.07;;;2.97;;
10446;SDS011;5271;44.422;26.092;2023-01-28T07:26:36;3.00;;;2.90;;
10446;SDS011;5271;44.422;26.092;2023-01-28T07:29:04;3.07;;;2.97;;
10446;SDS011;5271;44.422;26.092;2023-01-28T07:31:31;3.00;;;2.90;;
10446;SDS011;5271;44.422;26.092;2023-01-28T07:33:58;2.77;;;2.77;;
10446;SDS011;5271;44.422;26.092;2023-01-28T07:36:25;3.10;;;3.00;;
10446;SDS011;5271;44.422;26.092;2023-01-28T07:38:52;2.70;;;2.70;;
10446;SDS011;5271;44.422;26.092;2023-01-28T07:41:19;3.10;;;3.00;;
10446;SDS011;5271;44.422;26.092;2023-01-28T07:43:45;3.00;;;2.90;;
10446;SDS011;5271;44.422;26.092;2023-01-28T07:46:14;2.87;;;2.80;;
10446;SDS011;5271;44.422;26.092;2023-01-28T07:48:41;3.00;;;2.90;;
10446;SDS011;5271;44.422;26.092;2023-01-28T07:51:07;3.03;;;2.93;;
10446;SDS011;5271;44.422;26.092;2023-01-28T07:53:34;2.93;;;2.83;;
10446;SDS011;5271;44.422;26.092;2023-01-28T07:56:02;3.00;;;2.90;;
10446;SDS011;5271;44.422;26.092;2023-01-28T07:58:29;2.90;;;2.80;;
10446;SDS011;5271;44.422;26.092;2023-01-28T08:00:56;3.10;;;3.00;;
10446;SDS011;5271;44.422;26.092;2023-01-28T08:03:25;2.70;;;2.70;;
10446;SDS011;5271;44.422;26.092;2023-01-28T08:05:54;2.67;;;2.67;;
10446;SDS011;5271;44.422;26.092;2023-01-28T08:08:22;2.90;;;2.80;;
10446;SDS011;5271;44.422;26.092;2023-01-28T08:10:49;2.60;;;2.60;;
10446;SDS011;5271;44.422;26.092;2023-01-28T08:13:17;2.60;;;2.60;;
10446;SDS011;5271;44.422;26.092;2023-01-28T08:15:44;2.70;;;2.70;;
10446;SDS011;5271;44.422;26.092;2023-01-28T08:18:13;2.60;;;2.60;;
10446;SDS011;5271;44.422;26.092;2023-01-28T08:20:43;2.80;;;2.80;;
10446;SDS011;5271;44.422;26.092;2023-01-28T08:23:12;2.90;;;2.80;;
10446;SDS011;5271;44.422;26.092;2023-01-28T08:25:40;2.60;;;2.60;;
10446;SDS011;5271;44.422;26.092;2023-01-28T08:28:07;2.60;;;2.60;;
10446;SDS011;5271;44.422;26.092;2023-01-28T08:30:34;2.60;;;2.60;;
10446;SDS011;5271;44.422;26.092;2023-01-28T08:33:03;2.60;;;2.60;;
10446;SDS011;5271;44.422;26.092;2023-01-28T08:35:31;2.60;;;2.60;;
10446;SDS011;5271;44.422;26.092;2023-01-28T08:37:59;2.63;;;2.63;;
10446;SDS011;5271;44.422;26.092;2023-01-28T08:40:27;2.60;;;2.60;;
10446;SDS011;5271;44.422;26.092;2023-01-28T08:42:54;2.60;;;2.60;;
10446;SDS011;5271;44.422;26.092;2023-01-28T08:45:22;2.70;;;2.70;;
10446;SDS011;5271;44.422;26.092;2023-01-28T08:47:51;2.60;;;2.60;;
10446;SDS011;5271;44.422;26.092;2023-01-28T08:50:18;2.50;;;2.50;;
10446;SDS011;5271;44.422;26.092;2023-01-28T08:52:46;2.60;;;2.60;;
10446;SDS011;5271;44.422;26.092;2023-01-28T08:55:15;2.57;;;2.57;;
10446;SDS011;5271;44.422;26.092;2023-01-28T08:57:43;2.40;;;2.40;;
10446;SDS011;5271;44.422;26.092;2023-01-28T09:00:10;2.43;;;2.43;;
10446;SDS011;5271;44.422;26.092;2023-01-28T09:02:38;2.40;;;2.40;;
10446;SDS011;5271;44.422;26.092;2023-01-28T09:05:05;2.30;;;2.30;;
10446;SDS011;5271;44.422;26.092;2023-01-28T09:07:33;2.40;;;2.40;;
10446;SDS011;5271;44.422;26.092;2023-01-28T09:10:00;2.30;;;2.30;;
10446;SDS011;5271;44.422;26.092;2023-01-28T09:12:29;2.40;;;2.40;;
10446;SDS011;5271;44.422;26.092;2023-01-28T09:14:56;2.20;;;2.20;;
10446;SDS011;5271;44.422;26.092;2023-01-28T09:17:23;2.13;;;2.13;;
10446;SDS011;5271;44.422;26.092;2023-01-28T09:19:50;2.00;;;2.00;;
10446;SDS011;5271;44.422;26.092;2023-01-28T09:22:17;2.00;;;2.00;;
10446;SDS011;5271;44.422;26.092;2023-01-28T09:24:44;1.80;;;1.80;;
10446;SDS011;5271;44.422;26.092;2023-01-28T09:27:11;1.90;;;1.90;;
10446;SDS011;5271;44.422;26.092;2023-01-28T09:29:39;1.90;;;1.90;;
10446;SDS011;5271;44.422;26.092;2023-01-28T09:32:06;1.90;;;1.90;;
10446;SDS011;5271;44.422;26.092;2023-01-28T09:34:33;1.80;;;1.80;;
10446;SDS011;5271;44.422;26.092;2023-01-28T09:37:00;2.00;;;2.00;;
10446;SDS011;5271;44.422;26.092;2023-01-28T09:39:27;1.90;;;1.90;;
10446;SDS011;5271;44.422;26.092;2023-01-28T09:41:56;2.10;;;2.10;;
10446;SDS011;5271;44.422;26.092;2023-01-28T09:44:42;2.10;;;2.10;;
10446;SDS011;5271;44.422;26.092;2023-01-28T09:47:23;2.20;;;2.20;;
10446;SDS011;5271;44.422;26.092;2023-01-28T09:49:53;2.10;;;2.10;;
10446;SDS011;5271;44.422;26.092;2023-01-28T09:52:23;2.17;;;2.17;;
10446;SDS011;5271;44.422;26.092;2023-01-28T09:54:52;2.20;;;2.20;;
10446;SDS011;5271;44.422;26.092;2023-01-28T09:57:26;2.20;;;2.20;;
10446;SDS011;5271;44.422;26.092;2023-01-28T10:00:01;2.23;;;2.23;;
10446;SDS011;5271;44.422;26.092;2023-01-28T10:02:35;2.27;;;2.27;;
10446;SDS011;5271;44.422;26.092;2023-01-28T10:05:13;2.20;;;2.20;;
10446;SDS011;5271;44.422;26.092;2023-01-28T10:07:47;2.30;;;2.30;;
10446;SDS011;5271;44.422;26.092;2023-01-28T10:10:24;2.37;;;2.37;;
10446;SDS011;5271;44.422;26.092;2023-01-28T10:12:57;2.30;;;2.30;;
10446;SDS011;5271;44.422;26.092;2023-01-28T10:18:30;2.30;;;2.30;;
10446;SDS011;5271;44.422;26.092;2023-01-28T10:21:05;2.40;;;2.40;;
10446;SDS011;5271;44.422;26.092;2023-01-28T10:23:43;2.30;;;2.30;;
10446;SDS011;5271;44.422;26.092;2023-01-28T10:26:19;2.30;;;2.30;;
10446;SDS011;5271;44.422;26.092;2023-01-28T10:28:50;2.20;;;2.20;;
10446;SDS011;5271;44.422;26.092;2023-01-28T10:31:22;2.40;;;2.40;;
10446;SDS011;5271;44.422;26.092;2023-01-28T10:33:53;2.30;;;2.30;;
10446;SDS011;5271;44.422;26.092;2023-01-28T10:36:20;2.40;;;2.40;;
10446;SDS011;5271;44.422;26.092;2023-01-28T10:38:48;2.40;;;2.40;;
10446;SDS011;5271;44.422;26.092;2023-01-28T10:41:18;2.30;;;2.30;;
10446;SDS011;5271;44.422;26.092;2023-01-28T10:43:46;2.30;;;2.30;;
10446;SDS011;5271;44.422;26.092;2023-01-28T10:46:15;2.30;;;2.30;;
10446;SDS011;5271;44.422;26.092;2023-01-28T10:48:46;2.50;;;2.50;;
10446;SDS011;5271;44.422;26.092;2023-01-28T10:51:28;2.50;;;2.50;;
10446;SDS011;5271;44.422;26.092;2023-01-28T10:53:56;2.50;;;2.50;;
10446;SDS011;5271;44.422;26.092;2023-01-28T10:56:24;2.30;;;2.30;;
10446;SDS011;5271;44.422;26.092;2023-01-28T10:58:56;2.40;;;2.40;;
10446;SDS011;5271;44.422;26.092;2023-01-28T11:01:25;2.40;;;2.40;;
10446;SDS011;5271;44.422;26.092;2023-01-28T11:04:05;2.40;;;2.40;;
10446;SDS011;5271;44.422;26.092;2023-01-28T11:06:40;2.30;;;2.30;;
10446;SDS011;5271;44.422;26.092;2023-01-28T11:09:18;2.20;;;2.20;;
10446;SDS011;5271;44.422;26.092;2023-01-28T11:11:46;2.30;;;2.30;;
10446;SDS011;5271;44.422;26.092;2023-01-28T11:14:18;2.40;;;2.40;;
10446;SDS011;5271;44.422;26.092;2023-01-28T11:16:46;2.27;;;2.27;;
10446;SDS011;5271;44.422;26.092;2023-01-28T11:19:16;2.40;;;2.40;;
10446;SDS011;5271;44.422;26.092;2023-01-28T11:21:48;2.37;;;2.37;;
10446;SDS011;5271;44.422;26.092;2023-01-28T11:24:17;2.50;;;2.50;;
10446;SDS011;5271;44.422;26.092;2023-01-28T11:26:50;2.40;;;2.40;;
10446;SDS011;5271;44.422;26.092;2023-01-28T11:29:23;2.40;;;2.40;;
10446;SDS011;5271;44.422;26.092;2023-01-28T11:31:53;2.43;;;2.43;;
10446;SDS011;5271;44.422;26.092;2023-01-28T11:34:24;2.30;;;2.30;;
10446;SDS011;5271;44.422;26.092;2023-01-28T11:36:53;2.30;;;2.30;;
10446;SDS011;5271;44.422;26.092;2023-01-28T11:39:26;2.30;;;2.30;;
10446;SDS011;5271;44.422;26.092;2023-01-28T11:41:53;2.50;;;2.50;;
10446;SDS011;5271;44.422;26.092;2023-01-28T11:44:28;2.50;;;2.50;;
10446;SDS011;5271;44.422;26.092;2023-01-28T11:47:03;2.30;;;2.30;;
10446;SDS011;5271;44.422;26.092;2023-01-28T11:50:00;2.43;;;2.43;;
10446;SDS011;5271;44.422;26.092;2023-01-28T11:52:44;2.30;;;2.30;;
10446;SDS011;5271;44.422;26.092;2023-01-28T11:55:27;2.40;;;2.40;;
10446;SDS011;5271;44.422;26.092;2023-01-28T11:58:11;2.50;;;2.50;;
10446;SDS011;5271;44.422;26.092;2023-01-28T12:00:50;2.40;;;2.40;;
10446;SDS011;5271;44.422;26.092;2023-01-28T12:03:38;2.40;;;2.40;;
10446;SDS011;5271;44.422;26.092;2023-01-28T12:06:14;2.40;;;2.40;;
10446;SDS011;5271;44.422;26.092;2023-01-28T12:08:57;2.40;;;2.40;;
10446;SDS011;5271;44.422;26.092;2023-01-28T12:11:35;2.40;;;2.40;;
10446;SDS011;5271;44.422;26.092;2023-01-28T12:17:51;2.30;;;2.30;;
10446;SDS011;5271;44.422;26.092;2023-01-28T12:20:29;2.33;;;2.33;;
10446;SDS011;5271;44.422;26.092;2023-01-28T12:23:07;2.30;;;2.30;;
10446;SDS011;5271;44.422;26.092;2023-01-28T12:25:48;2.40;;;2.40;;
10446;SDS011;5271;44.422;26.092;2023-01-28T12:28:29;2.40;;;2.40;;
10446;SDS011;5271;44.422;26.092;2023-01-28T12:31:16;2.40;;;2.40;;
10446;SDS011;5271;44.422;26.092;2023-01-28T12:34:06;2.30;;;2.30;;
10446;SDS011;5271;44.422;26.092;2023-01-28T12:37:01;2.40;;;2.40;;
10446;SDS011;5271;44.422;26.092;2023-01-28T12:39:37;2.40;;;2.40;;
10446;SDS011;5271;44.422;26.092;2023-01-28T12:42:18;2.30;;;2.30;;
10446;SDS011;5271;44.422;26.092;2023-01-28T12:44:53;2.30;;;2.30;;
10446;SDS011;5271;44.422;26.092;2023-01-28T12:47:28;2.30;;;2.30;;
10446;SDS011;5271;44.422;26.092;2023-01-28T12:50:01;2.30;;;2.30;;
10446;SDS011;5271;44.422;26.092;2023-01-28T12:52:31;2.23;;;2.23;;
10446;SDS011;5271;44.422;26.092;2023-01-28T12:55:10;2.40;;;2.40;;
10446;SDS011;5271;44.422;26.092;2023-01-28T12:57:40;2.30;;;2.30;;
10446;SDS011;5271;44.422;26.092;2023-01-28T13:00:14;2.40;;;2.40;;
10446;SDS011;5271;44.422;26.092;2023-01-28T13:02:49;2.30;;;2.30;;
10446;SDS011;5271;44.422;26.092;2023-01-28T13:05:24;2.20;;;2.20;;
10446;SDS011;5271;44.422;26.092;2023-01-28T13:07:58;2.40;;;2.40;;
10446;SDS011;5271;44.422;26.092;2023-01-28T13:10:31;2.30;;;2.30;;
10446;SDS011;5271;44.422;26.092;2023-01-28T13:13:03;2.40;;;2.40;;
10446;SDS011;5271;44.422;26.092;2023-01-28T13:15:31;2.33;;;2.33;;
10446;SDS011;5271;44.422;26.092;2023-01-28T13:18:05;2.40;;;2.40;;
10446;SDS011;5271;44.422;26.092;2023-01-28T13:20:36;2.33;;;2.33;;
10446;SDS011;5271;44.422;26.092;2023-01-28T13:23:05;2.50;;;2.50;;
10446;SDS011;5271;44.422;26.092;2023-01-28T13:25:50;2.30;;;2.30;;
10446;SDS011;5271;44.422;26.092;2023-01-28T13:28:25;2.40;;;2.40;;
10446;SDS011;5271;44.422;26.092;2023-01-28T13:31:00;2.30;;;2.30;;
10446;SDS011;5271;44.422;26.092;2023-01-28T13:33:29;2.40;;;2.40;;
10446;SDS011;5271;44.422;26.092;2023-01-28T13:36:00;2.47;;;2.47;;
10446;SDS011;5271;44.422;26.092;2023-01-28T13:38:42;2.40;;;2.40;;
10446;SDS011;5271;44.422;26.092;2023-01-28T13:41:10;2.30;;;2.30;;
10446;SDS011;5271;44.422;26.092;2023-01-28T13:43:38;2.30;;;2.30;;
10446;SDS011;5271;44.422;26.092;2023-01-28T13:46:07;2.30;;;2.30;;
10446;SDS011;5271;44.422;26.092;2023-01-28T13:48:38;2.30;;;2.30;;
10446;SDS011;5271;44.422;26.092;2023-01-28T13:51:12;2.30;;;2.30;;
10446;SDS011;5271;44.422;26.092;2023-01-28T13:53:46;2.30;;;2.30;;
10446;SDS011;5271;44.422;26.092;2023-01-28T13:56:20;2.30;;;2.30;;
10446;SDS011;5271;44.422;26.092;2023-01-28T13:59:09;2.70;;;2.60;;
10446;SDS011;5271;44.422;26.092;2023-01-28T14:08:14;2.30;;;2.30;;
10446;SDS011;5271;44.422;26.092;2023-01-28T14:10:57;2.30;;;2.30;;
10446;SDS011;5271;44.422;26.092;2023-01-28T14:13:43;2.40;;;2.40;;
10446;SDS011;5271;44.422;26.092;2023-01-28T14:16:27;2.37;;;2.37;;
10446;SDS011;5271;44.422;26.092;2023-01-28T14:19:02;2.30;;;2.30;;
10446;SDS011;5271;44.422;26.092;2023-01-28T14:21:31;2.47;;;2.47;;
10446;SDS011;5271;44.422;26.092;2023-01-28T14:24:00;2.30;;;2.30;;
10446;SDS011;5271;44.422;26.092;2023-01-28T14:26:30;2.40;;;2.40;;
10446;SDS011;5271;44.422;26.092;2023-01-28T14:29:09;2.33;;;2.33;;
10446;SDS011;5271;44.422;26.092;2023-01-28T14:31:45;2.30;;;2.30;;
10446;SDS011;5271;44.422;26.092;2023-01-28T14:34:15;2.40;;;2.40;;
10446;SDS011;5271;44.422;26.092;2023-01-28T14:36:47;2.40;;;2.40;;
10446;SDS011;5271;44.422;26.092;2023-01-28T14:39:16;2.40;;;2.40;;
10446;SDS011;5271;44.422;26.092;2023-01-28T14:41:46;2.30;;;2.30;;
10446;SDS011;5271;44.422;26.092;2023-01-28T14:44:21;2.30;;;2.30;;
10446;SDS011;5271;44.422;26.092;2023-01-28T14:46:58;2.40;;;2.40;;
10446;SDS011;5271;44.422;26.092;2023-01-28T14:49:41;2.30;;;2.30;;
10446;SDS011;5271;44.422;26.092;2023-01-28T14:52:27;2.50;;;2.50;;
10446;SDS011;5271;44.422;26.092;2023-01-28T14:55:10;2.40;;;2.40;;
10446;SDS011;5271;44.422;26.092;2023-01-28T14:57:53;2.30;;;2.30;;
10446;SDS011;5271;44.422;26.092;2023-01-28T15:00:24;2.30;;;2.30;;
10446;SDS011;5271;44.422;26.092;2023-01-28T15:02:53;2.40;;;2.40;;
10446;SDS011;5271;44.422;26.092;2023-01-28T15:05:21;2.30;;;2.30;;
10446;SDS011;5271;44.422;26.092;2023-01-28T15:07:49;2.40;;;2.40;;
10446;SDS011;5271;44.422;26.092;2023-01-28T15:10:17;2.40;;;2.40;;
10446;SDS011;5271;44.422;26.092;2023-01-28T15:12:47;2.30;;;2.30;;
10446;SDS011;5271;44.422;26.092;2023-01-28T15:15:19;2.50;;;2.50;;
10446;SDS011;5271;44.422;26.092;2023-01-28T15:17:52;2.40;;;2.40;;
10446;SDS011;5271;44.422;26.092;2023-01-28T15:20:26;2.33;;;2.33;;
10446;SDS011;5271;44.422;26.092;2023-01-28T15:22:54;2.40;;;2.40;;
10446;SDS011;5271;44.422;26.092;2023-01-28T15:25:21;2.30;;;2.30;;
10446;SDS011;5271;44.422;26.092;2023-01-28T15:27:51;2.30;;;2.30;;